Time;durP1;ratioP1;P1;durP2;ratioP2;P2;SDS_P1;SDS_P2;PMS_P1;PMS_P2;Temp;Humidity;BMP_temperature;BMP_pressure;BME280_temperature;BME280_humidity;BME280_pressure;Samples;Min_cycle;Max_cycle;Signal;HPM_P1;HPM_P2
2020/12/02 00:05:08;;;;;;;27.77;11.15;;;;;;;5.88;88.80;100990.44;8866901;32;20218;-74
2020/12/02 00:10:10;;;;;;;20.85;9.45;;;;;;;5.92;88.97;100988.53;8893203;32;20197;-74
2020/12/02 00:15:13;;;;;;;23.17;9.20;;;;;;;5.91;88.50;100982.34;8893223;32;20506;-74
2020/12/02 00:20:16;;;;;;;20.67;10.02;;;;;;;5.90;88.89;100988.59;8897354;32;20173;-72
2020/12/02 00:25:19;;;;;;;21.40;10.43;;;;;;;5.91;88.89;100982.34;8897439;32;20175;-74
2020/12/02 00:30:21;;;;;;;23.77;10.00;;;;;;;5.91;88.80;100979.69;8896990;32;20909;-74
2020/12/02 00:35:24;;;;;;;21.30;9.73;;;;;;;5.90;88.86;100980.63;8897344;32;21375;-74
2020/12/02 00:40:26;;;;;;;21.92;9.45;;;;;;;5.90;88.83;100971.81;8896959;32;20150;-74
2020/12/02 00:45:29;;;;;;;20.02;9.48;;;;;;;5.90;88.83;100966.53;8897138;32;20226;-74
2020/12/02 00:50:32;;;;;;;23.35;10.60;;;;;;;5.92;88.80;100975.25;8896576;32;20164;-73
2020/12/02 00:55:35;;;;;;;24.83;11.30;;;;;;;5.91;88.75;100979.69;8896631;32;20205;-74
2020/12/02 01:00:40;;;;;;;29.92;13.38;;;;;;;5.97;88.89;100981.28;8896402;32;20193;-74
2020/12/02 01:05:46;;;;;;;32.85;13.45;;;;;;;6.00;88.85;100974.06;8897986;32;20181;-74
2020/12/02 01:10:55;;;;;;;28.00;13.30;;;;;;;6.03;88.84;100973.09;8896495;32;20626;-74
2020/12/02 01:15:58;;;;;;;35.38;15.15;;;;;;;6.00;88.77;100971.41;8882999;32;20181;-72
2020/12/02 01:21:16;;;;;;;35.42;14.25;;;;;;;6.00;88.97;100973.22;8895474;32;20276;-74
2020/12/02 01:26:20;;;;;;;32.15;13.00;;;;;;;6.03;88.84;100982.84;8895114;32;20583;-73
2020/12/02 01:31:24;;;;;;;23.85;12.35;;;;;;;6.01;88.96;100970.50;8895413;32;20647;-72
2020/12/02 01:36:55;;;;;;;24.02;11.80;;;;;;;6.01;89.05;100959.03;8895623;32;20137;-72
2020/12/02 01:41:57;;;;;;;29.38;12.85;;;;;;;6.02;88.94;100958.09;8895558;32;20283;-70
2020/12/02 01:47:06;;;;;;;25.42;13.35;;;;;;;6.01;88.81;100962.56;8894849;32;20678;-72
2020/12/02 01:52:38;;;;;;;34.88;14.40;;;;;;;6.04;88.73;100955.41;8894753;32;20956;-72
2020/12/02 01:57:41;;;;;;;36.13;13.13;;;;;;;6.01;89.08;100965.22;8895329;32;20200;-74
2020/12/02 02:02:52;;;;;;;36.25;14.23;;;;;;;6.01;88.86;100967.00;8894997;32;20647;-75
2020/12/02 02:07:56;;;;;;;34.28;13.85;;;;;;;5.96;88.76;100958.34;8894560;32;20164;-74
2020/12/02 02:13:28;;;;;;;34.88;13.05;;;;;;;5.94;88.80;100955.75;8894801;32;21697;-73
2020/12/02 02:18:31;;;;;;;35.63;15.52;;;;;;;5.90;88.80;100951.47;8894471;32;20646;-73
2020/12/02 02:23:35;;;;;;;38.10;14.65;;;;;;;5.87;88.66;100948.94;8893805;32;20480;-73
2020/12/02 02:28:47;;;;;;;35.80;13.95;;;;;;;5.84;88.73;100941.09;8893842;32;20150;-73
2020/12/02 02:33:51;;;;;;;43.28;15.73;;;;;;;5.82;88.58;100950.03;8894365;32;20423;-74
2020/12/02 02:38:54;;;;;;;37.47;15.65;;;;;;;5.76;88.66;100937.88;8893314;32;20185;-73
2020/12/02 02:43:57;;;;;;;38.50;15.90;;;;;;;5.77;88.65;100937.78;8893532;32;20182;-74
2020/12/02 02:48:59;;;;;;;37.17;15.82;;;;;;;5.77;88.69;100950.19;8893209;32;20216;-74
2020/12/02 02:54:03;;;;;;;41.05;16.73;;;;;;;5.73;88.47;100940.63;8893557;32;20487;-74
2020/12/02 02:59:06;;;;;;;47.92;18.67;;;;;;;5.74;88.59;100927.31;8892289;32;20599;-74
2020/12/02 03:04:09;;;;;;;44.00;18.20;;;;;;;5.80;88.78;100936.81;8893672;32;20630;-72
2020/12/02 03:09:13;;;;;;;37.97;16.05;;;;;;;5.77;88.54;100935.16;8893319;32;20177;-73
2020/12/02 03:14:16;;;;;;;39.63;17.40;;;;;;;5.75;88.79;100936.97;8894219;32;20456;-72
2020/12/02 03:19:23;;;;;;;39.85;15.95;;;;;;;5.79;88.50;100925.34;8892439;32;21713;-72
2020/12/02 03:24:27;;;;;;;40.22;17.05;;;;;;;5.73;88.37;100930.00;8892872;32;20595;-72
2020/12/02 03:29:30;;;;;;;48.30;18.00;;;;;;;5.70;88.21;100933.63;8892498;32;20140;-72
2020/12/02 03:34:32;;;;;;;38.80;17.13;;;;;;;5.73;88.49;100932.66;8892874;32;20149;-73
2020/12/02 03:39:34;;;;;;;46.90;18.60;;;;;;;5.78;88.63;100920.94;8892008;32;20180;-72
2020/12/02 03:44:37;;;;;;;42.53;16.65;;;;;;;5.73;88.67;100922.06;8892890;32;20589;-73
2020/12/02 03:49:40;;;;;;;41.85;17.33;;;;;;;5.76;88.53;100914.00;8891971;32;20413;-74
2020/12/02 03:54:42;;;;;;;43.25;17.35;;;;;;;5.78;88.56;100917.44;8897471;32;20138;-74
2020/12/02 03:59:45;;;;;;;43.10;18.33;;;;;;;5.79;88.65;100917.41;8897184;32;20138;-74
2020/12/02 04:04:47;;;;;;;44.53;17.83;;;;;;;5.84;88.68;100917.22;8897539;32;20567;-74
2020/12/02 04:09:49;;;;;;;48.15;18.58;;;;;;;5.84;88.51;100914.59;8871310;32;20205;-74
2020/12/02 04:14:52;;;;;;;46.53;19.10;;;;;;;5.85;88.69;100903.03;8897637;32;20947;-74
2020/12/02 04:19:54;;;;;;;47.47;19.20;;;;;;;5.83;88.62;100912.84;8897610;32;20189;-74
2020/12/02 04:24:57;;;;;;;42.65;18.65;;;;;;;5.83;88.64;100902.22;8897180;32;21078;-74
2020/12/02 04:30:00;;;;;;;45.00;19.15;;;;;;;5.82;88.66;100905.81;8896570;32;20138;-74
2020/12/02 04:35:02;;;;;;;52.53;20.38;;;;;;;5.79;88.53;100901.50;8896391;32;20149;-74
2020/12/02 04:40:12;;;;;;;45.70;17.85;;;;;;;5.77;88.50;100907.78;8896334;32;20173;-74
2020/12/02 04:45:17;;;;;;;44.40;18.70;;;;;;;5.71;88.55;100905.38;8896559;32;20138;-74
2020/12/02 04:50:25;;;;;;;49.22;19.83;;;;;;;5.70;88.53;100911.56;8896184;32;20250;-74
2020/12/02 04:55:28;;;;;;;50.17;18.83;;;;;;;5.69;88.57;100905.41;8896503;32;20153;-74
2020/12/02 05:00:33;;;;;;;39.45;16.92;;;;;;;5.62;88.29;100901.25;8895777;32;20176;-74
2020/12/02 05:05:36;;;;;;;45.75;18.55;;;;;;;5.56;88.35;100906.78;8895718;32;20623;-74
2020/12/02 05:10:38;;;;;;;47.90;19.17;;;;;;;5.54;88.25;100896.28;8895470;32;20204;-73
2020/12/02 05:15:41;;;;;;;56.53;22.05;;;;;;;5.51;88.13;100901.69;8856764;32;20209;-74
2020/12/02 05:21:00;;;;;;;48.80;21.17;;;;;;;5.49;88.04;100892.94;8834872;32;20150;-74
2020/12/02 05:26:17;;;;;;;53.67;20.73;;;;;;;5.48;88.36;100898.25;8835539;32;20149;-74
2020/12/02 05:31:23;;;;;;;54.42;20.98;;;;;;;5.46;88.15;100897.47;8838615;32;20244;-73
2020/12/02 05:36:32;;;;;;;55.17;22.63;;;;;;;5.42;87.91;100896.72;8837949;32;20404;-73
2020/12/02 05:41:34;;;;;;;56.55;23.15;;;;;;;5.41;88.03;100886.19;8835528;32;20181;-73
2020/12/02 05:46:44;;;;;;;64.38;24.10;;;;;;;5.43;88.02;100886.97;8835613;32;20545;-74
2020/12/02 05:51:47;;;;;;;60.40;23.45;;;;;;;5.42;88.03;100886.13;8835528;32;20585;-73
2020/12/02 05:56:49;;;;;;;60.88;25.67;;;;;;;5.43;87.89;100885.22;8835634;32;20169;-74
2020/12/02 06:01:57;;;;;;;61.65;22.85;;;;;;;5.39;87.76;100875.63;8835747;32;20630;-73
2020/12/02 06:06:59;;;;;;;62.95;23.50;;;;;;;5.38;87.99;100889.81;8835496;32;20249;-74
2020/12/02 06:12:03;;;;;;;61.10;23.73;;;;;;;5.44;87.71;100888.72;8836039;32;20908;-74
2020/12/02 06:17:10;;;;;;;60.40;23.75;;;;;;;5.40;88.13;100879.13;8834829;32;20482;-74
2020/12/02 06:22:13;;;;;;;54.97;23.02;;;;;;;5.37;87.48;100876.59;8835489;32;20131;-74
2020/12/02 06:27:42;;;;;;;51.72;24.15;;;;;;;5.33;87.93;100870.56;8834853;32;20147;-73
2020/12/02 06:33:20;;;;;;;61.42;23.10;;;;;;;5.28;87.78;100873.38;8855928;32;20448;-74
2020/12/02 06:38:29;;;;;;;61.28;24.48;;;;;;;5.27;87.80;100869.00;8894278;32;20685;-74
2020/12/02 06:43:34;;;;;;;61.50;23.52;;;;;;;5.26;87.65;100872.56;8894950;32;20202;-74
2020/12/02 06:48:39;;;;;;;58.65;22.40;;;;;;;5.26;87.48;100861.97;8894355;32;20530;-74
2020/12/02 06:53:41;;;;;;;59.10;21.95;;;;;;;5.28;87.67;100853.97;8895039;32;20275;-74
2020/12/02 06:58:44;;;;;;;53.42;22.58;;;;;;;5.33;87.90;100852.03;8893741;32;20456;-74
2020/12/02 07:03:47;;;;;;;53.65;21.98;;;;;;;5.35;87.78;100856.34;8894163;32;20137;-74
2020/12/02 07:09:00;;;;;;;56.05;22.75;;;;;;;5.34;87.50;100859.03;8894297;32;20189;-74
2020/12/02 07:14:16;;;;;;;61.28;22.48;;;;;;;5.27;87.73;100862.84;8893796;32;20158;-74
2020/12/02 07:19:19;;;;;;;54.63;22.00;;;;;;;5.24;87.63;100852.38;8893605;32;20177;-73
2020/12/02 07:24:27;;;;;;;55.28;20.60;;;;;;;5.22;87.56;100854.22;8894549;32;20689;-73
2020/12/02 07:29:30;;;;;;;55.13;21.48;;;;;;;5.27;87.51;100865.50;8893392;32;20435;-73
2020/12/02 07:34:34;;;;;;;58.05;19.75;;;;;;;5.54;88.07;100871.56;8893381;32;20225;-73
2020/12/02 07:39:45;;;;;;;66.82;25.00;;;;;;;5.88;88.02;100863.13;8893504;32;20638;-74
2020/12/02 07:45:03;;;;;;;50.88;20.58;;;;;;;6.15;87.87;100865.66;8893663;32;20438;-74
2020/12/02 07:50:21;;;;;;;41.83;17.88;;;;;;;6.22;86.86;100862.66;8893164;32;20187;-73
2020/12/02 07:55:35;;;;;;;34.05;16.33;;;;;;;6.13;86.42;100863.03;8893317;32;20177;-73
2020/12/02 08:00:41;;;;;;;48.17;21.30;;;;;;;6.03;86.36;100859.03;8892713;32;20189;-74
2020/12/02 08:05:52;;;;;;;38.63;19.33;;;;;;;5.89;86.32;100853.38;8893643;32;20664;-73
2020/12/02 08:11:04;;;;;;;43.92;19.70;;;;;;;5.76;86.39;100853.03;8867074;32;20421;-73
2020/12/02 08:16:12;;;;;;;46.92;20.70;;;;;;;5.75;86.52;100851.28;8893406;32;20484;-73
2020/12/02 08:21:16;;;;;;;44.50;19.52;;;;;;;5.66;86.51;100841.03;8892441;32;20507;-74
2020/12/02 08:26:23;;;;;;;55.25;22.42;;;;;;;5.64;86.67;100830.50;8892471;32;20548;-73
2020/12/02 08:31:29;;;;;;;49.80;20.35;;;;;;;5.65;86.71;100841.94;8892803;32;20173;-72
2020/12/02 08:36:31;;;;;;;51.63;22.48;;;;;;;5.70;86.87;100842.63;8893581;32;20188;-72
2020/12/02 08:41:43;;;;;;;50.33;21.17;;;;;;;5.70;86.88;100829.38;8898478;32;20773;-74
2020/12/02 08:46:51;;;;;;;47.95;19.63;;;;;;;5.72;86.98;100825.75;8898334;32;20431;-74
2020/12/02 08:51:54;;;;;;;42.08;18.20;;;;;;;5.72;86.76;100828.41;8898196;32;20435;-72
2020/12/02 08:57:02;;;;;;;49.53;20.30;;;;;;;5.74;86.95;100823.91;8897497;32;20181;-74
2020/12/02 09:02:11;;;;;;;48.88;19.52;;;;;;;5.77;87.03;100828.22;8898136;32;20606;-74
2020/12/02 09:07:15;;;;;;;44.03;19.77;;;;;;;5.74;86.78;100823.06;8899593;32;20246;-74
2020/12/02 09:12:18;;;;;;;50.90;21.58;;;;;;;5.65;86.35;100821.63;8898322;32;21335;-73
2020/12/02 09:17:21;;;;;;;46.33;19.02;;;;;;;5.60;86.15;100807.69;8896941;32;20421;-74
2020/12/02 09:22:23;;;;;;;43.50;17.95;;;;;;;5.63;86.29;100809.34;8896803;32;20150;-73
2020/12/02 09:27:27;;;;;;;52.03;20.60;;;;;;;5.68;86.22;100802.94;8897754;32;20177;-74
2020/12/02 09:32:29;;;;;;;49.95;20.58;;;;;;;5.68;85.50;100800.28;8896630;32;21417;-74
2020/12/02 09:37:36;;;;;;;46.08;19.45;;;;;;;5.75;85.47;100795.59;8870450;32;20138;-73
2020/12/02 09:42:59;;;;;;;47.38;18.55;;;;;;;5.82;85.88;100791.78;8896295;32;20430;-73
2020/12/02 09:48:11;;;;;;;44.85;18.00;;;;;;;5.79;85.36;100782.16;8895494;32;20153;-74
2020/12/02 09:53:20;;;;;;;42.90;17.65;;;;;;;5.79;85.52;100791.91;8895656;32;20130;-74
2020/12/02 09:58:25;;;;;;;50.95;20.00;;;;;;;5.79;85.46;100773.34;8894956;32;20677;-73
2020/12/02 10:04:18;;;;;;;47.65;20.10;;;;;;;5.75;85.26;100758.47;8896050;32;20146;-72
2020/12/02 10:09:58;;;;;;;48.95;18.38;;;;;;;5.79;85.21;100752.16;8893864;32;20193;-74
2020/12/02 10:15:15;;;;;;;48.75;19.02;;;;;;;5.91;85.47;100737.50;8895474;32;20154;-74
2020/12/02 10:20:33;;;;;;;44.88;18.50;;;;;;;5.86;84.96;100728.88;8897867;32;20805;-72
2020/12/02 10:25:56;;;;;;;46.97;18.50;;;;;;;5.82;84.38;100728.16;8899357;32;20451;-74
2020/12/02 10:31:17;;;;;;;46.42;19.20;;;;;;;5.90;84.64;100718.09;8898160;32;20228;-74
2020/12/02 10:36:24;;;;;;;39.80;17.40;;;;;;;6.03;85.05;100715.78;8895196;32;20994;-74
2020/12/02 10:41:50;;;;;;;47.85;18.35;;;;;;;6.02;84.05;100703.47;8869009;32;20549;-74
2020/12/02 10:47:27;;;;;;;38.33;18.08;;;;;;;6.09;83.81;100678.41;8893897;32;20168;-74
2020/12/02 10:52:29;;;;;;;37.42;15.70;;;;;;;6.02;83.20;100674.28;8868223;32;20209;-74
2020/12/02 10:57:32;;;;;;;27.88;14.02;;;;;;;6.05;82.88;100663.53;8894121;32;20469;-74
2020/12/02 11:02:35;;;;;;;36.97;15.10;;;;;;;6.19;83.22;100647.88;8893378;32;20725;-73
2020/12/02 11:07:48;;;;;;;39.78;14.73;;;;;;;6.05;82.56;100644.97;8893835;32;20221;-74
2020/12/02 11:13:11;;;;;;;34.78;14.82;;;;;;;6.07;81.85;100648.44;8893789;32;20203;-74
2020/12/02 11:18:44;;;;;;;29.60;12.82;;;;;;;6.18;82.45;100632.88;8893216;32;20638;-74
2020/12/02 11:24:35;;;;;;;30.80;14.43;;;;;;;6.27;82.69;100625.44;8816340;32;20646;-74
2020/12/02 11:29:38;;;;;;;32.50;13.13;;;;;;;6.28;82.75;100624.50;8893498;32;20430;-74
2020/12/02 11:35:00;;;;;;;27.60;13.30;;;;;;;6.35;81.95;100618.84;8893207;32;20638;-74
2020/12/02 11:40:10;;;;;;;31.42;13.77;;;;;;;6.22;81.15;100609.72;8893206;32;20962;-74
2020/12/02 11:45:18;;;;;;;27.92;13.10;;;;;;;6.21;81.10;100595.59;8893337;32;20146;-75
2020/12/02 11:50:28;;;;;;;26.92;13.00;;;;;;;6.23;81.00;100598.19;8892893;32;20185;-74
2020/12/02 11:55:32;;;;;;;33.63;13.00;;;;;;;6.22;81.02;100583.19;8893298;32;20736;-74
2020/12/02 12:00:34;;;;;;;28.00;12.05;;;;;;;6.24;80.49;100579.53;8892794;32;20185;-74
2020/12/02 12:05:57;;;;;;;29.13;11.40;;;;;;;6.35;80.30;100579.06;8893407;32;20189;-74
2020/12/02 12:11:03;;;;;;;22.65;9.90;;;;;;;6.40;80.35;100571.75;8893163;32;20149;-74
2020/12/02 12:16:17;;;;;;;24.95;11.55;;;;;;;6.48;80.14;100570.53;8898183;32;20185;-74
2020/12/02 12:21:32;;;;;;;24.50;10.73;;;;;;;6.53;79.49;100568.53;8898020;32;20271;-74
2020/12/02 12:26:39;;;;;;;19.83;10.00;;;;;;;6.59;79.98;100560.25;8896434;32;20141;-74
2020/12/02 12:31:48;;;;;;;24.73;11.00;;;;;;;6.59;79.78;100545.19;8897653;32;20179;-73
2020/12/02 12:37:07;;;;;;;22.83;10.27;;;;;;;6.52;78.59;100540.25;8897337;32;20287;-74
2020/12/02 12:42:12;;;;;;;21.08;9.75;;;;;;;6.50;78.17;100532.38;8897588;32;20931;-74
2020/12/02 12:47:23;;;;;;;22.33;9.55;;;;;;;6.38;77.62;100519.66;8896968;32;20578;-73
2020/12/02 12:52:32;;;;;;;20.93;10.57;;;;;;;6.51;76.55;100512.84;8897127;32;20655;-72
2020/12/02 12:57:34;;;;;;;20.60;9.52;;;;;;;6.57;77.08;100507.22;8899873;32;20187;-73
2020/12/02 13:02:37;;;;;;;22.67;10.98;;;;;;;6.48;77.86;100502.38;8897498;32;20404;-75
2020/12/02 13:07:44;;;;;;;26.35;10.25;;;;;;;6.33;78.55;100488.03;8897636;32;20450;-75
2020/12/02 13:12:58;;;;;;;21.77;10.13;;;;;;;6.26;78.82;100488.41;8896600;32;20686;-74
2020/12/02 13:18:10;;;;;;;19.25;10.32;;;;;;;6.18;78.62;100478.16;8848963;32;20186;-74
2020/12/02 13:23:18;;;;;;;19.63;10.90;;;;;;;6.06;78.39;100471.66;8895757;32;20842;-75
2020/12/02 13:28:30;;;;;;;20.77;9.75;;;;;;;5.95;77.09;100484.50;8896137;32;20250;-74
2020/12/02 13:33:37;;;;;;;24.15;9.30;;;;;;;5.83;76.78;100475.31;8870663;32;20185;-75
2020/12/02 13:38:40;;;;;;;19.55;9.63;;;;;;;5.75;76.88;100461.53;8897718;32;20964;-75
2020/12/02 13:43:44;;;;;;;18.67;8.73;;;;;;;5.66;76.87;100460.19;8838892;32;20138;-74
2020/12/02 13:48:51;;;;;;;22.63;10.27;;;;;;;5.67;77.08;100453.94;8835943;32;20207;-75
2020/12/02 13:54:03;;;;;;;21.17;9.07;;;;;;;5.66;77.32;100462.81;8835447;32;20692;-75
2020/12/02 13:59:18;;;;;;;21.75;10.77;;;;;;;5.53;76.90;100457.22;8834652;32;20189;-74
2020/12/02 14:04:40;;;;;;;22.85;9.93;;;;;;;5.51;77.11;100453.78;8833869;32;20262;-74
2020/12/02 14:09:49;;;;;;;23.15;9.77;;;;;;;5.57;77.60;100452.66;8834776;32;20181;-74
2020/12/02 14:14:55;;;;;;;20.43;9.20;;;;;;;5.51;77.38;100447.59;8835165;32;20189;-74
2020/12/02 14:19:57;;;;;;;20.80;9.10;;;;;;;5.51;77.33;100448.50;8834197;32;20631;-74
2020/12/02 14:25:05;;;;;;;21.50;9.93;;;;;;;5.48;77.63;100453.91;8834764;32;20308;-74
2020/12/02 14:30:17;;;;;;;22.40;10.65;;;;;;;5.40;77.31;100440.13;8834375;32;20146;-74
2020/12/02 14:35:25;;;;;;;20.48;9.50;;;;;;;5.42;77.38;100438.28;8834195;32;20193;-75
2020/12/02 14:40:30;;;;;;;21.85;9.48;;;;;;;5.39;77.44;100427.81;8833741;32;20190;-74
2020/12/02 14:45:33;;;;;;;25.75;10.00;;;;;;;5.35;77.34;100424.47;8834442;32;20461;-73
2020/12/02 14:50:35;;;;;;;17.52;9.65;;;;;;;5.37;77.57;100424.38;8834118;32;20199;-74
2020/12/02 14:55:38;;;;;;;19.10;9.32;;;;;;;5.37;77.51;100418.22;8833727;32;21489;-74
2020/12/02 15:00:55;;;;;;;17.45;8.88;;;;;;;5.36;77.58;100417.38;8834046;32;20209;-74
2020/12/02 15:05:58;;;;;;;21.65;9.45;;;;;;;5.37;77.55;100413.78;8834366;32;20218;-74
2020/12/02 15:11:02;;;;;;;21.75;8.57;;;;;;;5.31;77.62;100411.41;8833259;32;20652;-74
2020/12/02 15:16:04;;;;;;;23.17;10.15;;;;;;;5.34;77.97;100405.97;8833084;32;20181;-74
2020/12/02 15:21:07;;;;;;;19.10;8.98;;;;;;;5.33;77.96;100399.81;8833136;32;21067;-74
2020/12/02 15:26:11;;;;;;;21.77;10.10;;;;;;;5.27;77.81;100393.94;8833059;32;20151;-74
2020/12/02 15:31:16;;;;;;;21.33;11.73;;;;;;;5.15;77.80;100390.03;8831592;32;20198;-74
2020/12/02 15:36:27;;;;;;;21.95;12.02;;;;;;;5.08;77.81;100383.31;8834489;32;20126;-76
2020/12/02 15:41:37;;;;;;;24.92;11.32;;;;;;;5.03;77.93;100374.69;8836892;32;20182;-74
2020/12/02 15:47:03;;;;;;;23.40;10.95;;;;;;;4.99;78.04;100379.28;8807643;32;20194;-76
2020/12/02 15:52:17;;;;;;;25.07;10.83;;;;;;;4.99;78.42;100370.44;8827253;32;20154;-75
2020/12/02 15:57:52;;;;;;;28.67;12.48;;;;;;;4.93;78.03;100373.38;8832406;32;20231;-74
2020/12/02 16:02:55;;;;;;;25.65;11.32;;;;;;;4.93;77.96;100365.44;8828760;32;20229;-75
2020/12/02 16:08:11;;;;;;;27.45;12.25;;;;;;;4.82;78.23;100355.31;8830256;32;20181;-74
2020/12/02 16:13:17;;;;;;;27.48;11.68;;;;;;;4.79;78.49;100345.72;8830632;32;20610;-75
2020/12/02 16:18:20;;;;;;;28.60;12.48;;;;;;;4.81;78.77;100345.66;8862454;32;20185;-73
2020/12/02 16:23:23;;;;;;;28.88;11.93;;;;;;;4.76;78.31;100347.63;8892867;32;20146;-76
2020/12/02 16:28:30;;;;;;;30.08;12.70;;;;;;;4.71;78.67;100334.59;8892244;32;20466;-75
2020/12/02 16:33:37;;;;;;;27.63;10.90;;;;;;;4.58;78.95;100325.47;8867660;32;20181;-74
2020/12/02 16:38:41;;;;;;;30.13;12.68;;;;;;;4.54;79.02;100334.47;8892459;32;20431;-75
2020/12/02 16:44:06;;;;;;;25.90;10.83;;;;;;;4.48;78.99;100329.44;8893418;32;20181;-75
2020/12/02 16:49:40;;;;;;;29.42;12.30;;;;;;;4.46;78.93;100319.78;8895248;32;20265;-74
2020/12/02 16:55:05;;;;;;;30.83;12.10;;;;;;;4.36;79.01;100313.19;8892470;32;20234;-76
2020/12/02 17:00:17;;;;;;;33.67;13.93;;;;;;;4.36;79.12;100310.53;8895257;32;20146;-75
2020/12/02 17:05:24;;;;;;;31.52;11.98;;;;;;;4.43;79.01;100305.81;8897570;32;20189;-76
2020/12/02 17:10:30;;;;;;;30.52;13.52;;;;;;;4.36;78.71;100302.59;8897401;32;20171;-75
2020/12/02 17:15:51;;;;;;;28.33;12.23;;;;;;;4.39;79.05;100298.97;8898221;32;20671;-74
2020/12/02 17:21:08;;;;;;;27.67;12.80;;;;;;;4.36;78.88;100299.06;8905883;32;20218;-74
2020/12/02 17:26:21;;;;;;;25.43;12.07;;;;;;;4.31;79.00;100287.84;8902293;32;20191;-74
2020/12/02 17:31:48;;;;;;;30.03;13.73;;;;;;;4.35;79.14;100278.84;8897661;32;20509;-74
2020/12/02 17:37:01;;;;;;;29.07;12.77;;;;;;;4.36;78.72;100280.53;8896613;32;20628;-74
2020/12/02 17:42:24;;;;;;;24.57;10.60;;;;;;;4.38;78.99;100274.28;8898594;32;20433;-75
2020/12/02 17:47:35;;;;;;;24.13;11.38;;;;;;;4.38;78.84;100279.56;8898083;32;20224;-74
2020/12/02 17:52:59;;;;;;;26.60;11.47;;;;;;;4.32;78.79;100274.53;8898790;32;20272;-74
2020/12/02 17:58:25;;;;;;;22.40;11.57;;;;;;;4.29;78.67;100264.09;8878317;32;20196;-75
2020/12/02 18:03:45;;;;;;;27.77;13.57;;;;;;;4.35;78.86;100263.81;8776399;33;20193;-74
2020/12/02 18:09:05;;;;;;;28.93;12.87;;;;;;;4.36;78.90;100260.28;8776096;33;20150;-73
2020/12/02 18:14:31;;;;;;;23.33;12.33;;;;;;;4.33;78.77;100252.44;8810490;32;20161;-76
2020/12/02 18:19:42;;;;;;;27.20;12.90;;;;;;;4.38;78.84;100247.81;8835915;33;20423;-76
2020/12/02 18:25:01;;;;;;;24.55;11.63;;;;;;;4.42;78.82;100244.13;8835292;32;20246;-74
2020/12/02 18:30:21;;;;;;;26.70;12.43;;;;;;;4.41;78.67;100249.47;8834271;33;20178;-76
2020/12/02 19:02:59;;;;;;;30.67;15.13;;;;;;;4.12;80.45;100221.66;8928852;31;1438816;-75
2020/12/02 19:08:08;;;;;;;31.52;13.77;;;;;;;4.12;80.18;100213.72;8808240;33;20161;-73
2020/12/02 19:13:19;;;;;;;30.53;13.97;;;;;;;4.12;80.25;100211.94;8807606;33;20147;-73
2020/12/02 19:18:59;;;;;;;30.15;14.82;;;;;;;4.17;80.00;100201.16;8808369;33;20725;-74
2020/12/02 19:24:20;;;;;;;27.00;13.05;;;;;;;4.24;80.05;100198.16;8832968;33;20240;-74
2020/12/02 19:30:13;;;;;;;30.02;12.77;;;;;;;4.23;79.97;100196.47;8832364;33;20771;-74
2020/12/02 19:35:28;;;;;;;33.83;14.48;;;;;;;4.21;80.36;100194.81;8793363;33;20546;-74
2020/12/02 19:40:42;;;;;;;32.30;15.43;;;;;;;4.31;80.00;100184.69;8832316;33;20304;-74
2020/12/02 19:45:59;;;;;;;27.60;13.27;;;;;;;4.35;80.50;100170.41;8807106;33;20443;-74
2020/12/02 19:51:08;;;;;;;34.07;14.33;;;;;;;4.28;80.44;100158.34;8807511;33;20178;-75
2020/12/02 19:56:21;;;;;;;32.60;15.70;;;;;;;4.17;81.29;100143.00;8832031;33;20236;-75
2020/12/02 20:01:30;;;;;;;33.38;16.52;;;;;;;4.05;81.55;100143.53;8795644;33;20151;-74
2020/12/02 20:06:55;;;;;;;36.70;16.30;;;;;;;4.01;81.43;100143.66;8813381;33;20172;-74
2020/12/02 20:12:09;;;;;;;35.13;14.27;;;;;;;4.06;81.30;100129.38;8725381;32;20607;-73
2020/12/02 20:17:20;;;;;;;34.83;15.60;;;;;;;4.16;80.89;100136.81;8718733;32;20701;-75
2020/12/02 20:23:03;;;;;;;32.43;15.27;;;;;;;4.20;80.67;100137.56;8718345;32;20140;-74
2020/12/02 20:28:13;;;;;;;33.17;14.13;;;;;;;4.26;80.37;100126.72;8717766;32;20179;-74
2020/12/02 20:33:21;;;;;;;32.10;14.60;;;;;;;4.13;80.53;100133.47;8720057;33;20566;-75
2020/12/02 20:38:54;;;;;;;34.60;16.33;;;;;;;4.10;80.59;100131.81;8718043;32;20144;-75
2020/12/02 20:43:56;;;;;;;30.50;14.90;;;;;;;4.07;80.54;100128.47;8718167;32;20653;-75
2020/12/02 20:49:00;;;;;;;31.53;14.87;;;;;;;4.03;80.29;100122.44;8764830;32;20450;-73
2020/12/02 20:54:06;;;;;;;30.60;14.50;;;;;;;3.94;80.46;100121.03;8719077;33;20168;-75
2020/12/02 20:59:18;;;;;;;31.77;14.70;;;;;;;3.98;80.44;100111.22;8718001;32;20135;-75
2020/12/02 21:04:21;;;;;;;31.17;14.38;;;;;;;4.02;80.38;100110.16;8718851;32;20184;-74
2020/12/02 21:09:27;;;;;;;28.80;14.05;;;;;;;3.98;80.23;100092.72;8716813;32;20187;-75
2020/12/02 21:14:30;;;;;;;31.07;13.77;;;;;;;3.87;80.25;100100.25;8716454;32;20852;-74
2020/12/02 21:19:39;;;;;;;28.50;13.30;;;;;;;4.08;79.84;100088.72;8715435;32;20274;-75
2020/12/02 21:25:22;;;;;;;33.03;14.03;;;;;;;4.07;80.08;100092.28;8716859;32;20946;-74
2020/12/02 21:30:29;;;;;;;31.77;14.23;;;;;;;4.09;80.25;100082.53;8716094;32;21624;-74
2020/12/02 21:35:54;;;;;;;30.97;14.43;;;;;;;4.03;80.26;100068.69;8753196;32;20144;-75
2020/12/02 21:41:01;;;;;;;34.50;14.60;;;;;;;4.05;80.43;100054.50;8715154;32;20226;-74
2020/12/02 21:46:47;;;;;;;32.40;15.53;;;;;;;3.96;81.05;100045.19;8753895;32;21436;-74
2020/12/02 21:52:26;;;;;;;27.60;13.97;;;;;;;3.83;81.71;100035.25;8806905;32;20494;-74
2020/12/02 21:57:40;;;;;;;28.75;14.30;;;;;;;3.61;82.16;100040.63;8781055;32;20884;-73
2020/12/02 22:03:12;;;;;;;32.47;13.27;;;;;;;3.55;83.05;100039.94;8679857;33;20180;-74
2020/12/02 22:08:18;;;;;;;31.70;14.13;;;;;;;3.61;83.25;100033.53;8681461;33;20156;-74
2020/12/02 22:13:30;;;;;;;35.73;14.83;;;;;;;3.67;83.33;100016.56;8680471;33;20190;-73
2020/12/02 22:19:05;;;;;;;32.83;14.63;;;;;;;3.72;83.42;100017.22;8680743;33;20216;-74
2020/12/02 22:24:22;;;;;;;33.97;14.63;;;;;;;3.75;83.29;99996.78;8680698;33;20680;-74
2020/12/02 22:29:26;;;;;;;38.13;15.40;;;;;;;3.73;82.89;100003.94;8680034;33;20160;-74
2020/12/02 22:35:03;;;;;;;33.83;14.13;;;;;;;3.77;83.06;99996.72;8682202;33;20144;-73
2020/12/02 22:40:33;;;;;;;33.67;13.70;;;;;;;3.81;82.76;99992.16;8851487;33;20185;-75
2020/12/02 22:45:41;;;;;;;34.17;15.10;;;;;;;3.88;82.70;99993.63;8857108;33;20146;-73
2020/12/02 22:50:47;;;;;;;31.73;13.60;;;;;;;3.90;82.55;99986.47;8856186;33;20189;-73
2020/12/02 22:55:50;;;;;;;36.58;13.05;;;;;;;3.88;82.53;99975.97;8856596;33;20284;-73
2020/12/02 23:00:53;;;;;;;34.00;14.43;;;;;;;3.94;82.48;99961.59;8855926;33;20146;-75
2020/12/02 23:06:04;;;;;;;37.80;14.13;;;;;;;3.96;82.58;99944.75;8849117;33;20776;-74
2020/12/02 23:11:06;;;;;;;34.50;14.30;;;;;;;3.94;82.07;99936.03;8837135;33;20820;-74
2020/12/02 23:16:15;;;;;;;33.63;14.13;;;;;;;4.00;81.88;99927.84;8835944;33;20181;-75
2020/12/02 23:21:20;;;;;;;36.97;15.60;;;;;;;3.92;82.29;99923.81;8836077;33;20685;-72
2020/12/02 23:26:39;;;;;;;32.30;13.90;;;;;;;3.92;82.24;99934.38;8835638;33;20578;-75
2020/12/02 23:31:55;;;;;;;34.10;14.40;;;;;;;4.01;82.11;99924.25;8835698;33;21014;-74
2020/12/02 23:36:59;;;;;;;33.37;13.80;;;;;;;4.06;82.12;99920.50;8835511;33;20185;-73
2020/12/02 23:42:16;;;;;;;38.27;14.50;;;;;;;4.08;81.83;99905.44;8835115;33;21072;-74
2020/12/02 23:47:26;;;;;;;31.33;13.53;;;;;;;4.17;81.77;99894.44;8834902;33;20230;-75
2020/12/02 23:52:29;;;;;;;36.10;12.70;;;;;;;4.13;81.63;99880.50;8834738;33;20228;-72
2020/12/02 23:57:32;;;;;;;29.58;14.25;;;;;;;4.13;81.69;99877.84;8834864;33;20309;-75
